sensor_id;sensor_type;location;lat;lon;timestamp;P1;durP1;ratioP1;P2;durP2;ratioP2
16248;SDS011;8232;51.678;6.610;2022-07-22T00:00:51;9.25;;;3.58;;
16248;SDS011;8232;51.678;6.610;2022-07-22T00:03:18;10.07;;;3.20;;
16248;SDS011;8232;51.678;6.610;2022-07-22T00:05:45;7.35;;;3.10;;
16248;SDS011;8232;51.678;6.610;2022-07-22T00:08:12;9.93;;;2.78;;
16248;SDS011;8232;51.678;6.610;2022-07-22T00:10:41;8.15;;;3.22;;
16248;SDS011;8232;51.678;6.610;2022-07-22T00:13:08;9.88;;;3.22;;
16248;SDS011;8232;51.678;6.610;2022-07-22T00:15:35;7.78;;;3.28;;
16248;SDS011;8232;51.678;6.610;2022-07-22T00:18:02;12.45;;;3.33;;
16248;SDS011;8232;51.678;6.610;2022-07-22T00:20:28;6.82;;;3.05;;
16248;SDS011;8232;51.678;6.610;2022-07-22T00:22:55;6.80;;;2.85;;
16248;SDS011;8232;51.678;6.610;2022-07-22T00:25:22;7.20;;;3.20;;
16248;SDS011;8232;51.678;6.610;2022-07-22T00:27:50;6.05;;;3.10;;
16248;SDS011;8232;51.678;6.610;2022-07-22T00:30:17;8.82;;;2.90;;
16248;SDS011;8232;51.678;6.610;2022-07-22T00:32:44;8.70;;;3.25;;
16248;SDS011;8232;51.678;6.610;2022-07-22T00:35:11;11.68;;;3.08;;
16248;SDS011;8232;51.678;6.610;2022-07-22T00:37:37;6.97;;;2.47;;
16248;SDS011;8232;51.678;6.610;2022-07-22T00:40:05;5.05;;;2.90;;
16248;SDS011;8232;51.678;6.610;2022-07-22T00:42:32;12.02;;;2.75;;
16248;SDS011;8232;51.678;6.610;2022-07-22T00:45:01;10.25;;;3.10;;
16248;SDS011;8232;51.678;6.610;2022-07-22T00:47:29;11.70;;;3.05;;
16248;SDS011;8232;51.678;6.610;2022-07-22T00:49:56;7.03;;;2.30;;
16248;SDS011;8232;51.678;6.610;2022-07-22T00:52:22;11.02;;;3.17;;
16248;SDS011;8232;51.678;6.610;2022-07-22T00:54:50;5.85;;;2.47;;
16248;SDS011;8232;51.678;6.610;2022-07-22T00:57:17;6.57;;;2.35;;
16248;SDS011;8232;51.678;6.610;2022-07-22T00:59:44;5.30;;;2.35;;
16248;SDS011;8232;51.678;6.610;2022-07-22T01:02:12;4.93;;;2.40;;
16248;SDS011;8232;51.678;6.610;2022-07-22T01:04:40;9.32;;;3.00;;
16248;SDS011;8232;51.678;6.610;2022-07-22T01:07:07;7.28;;;2.70;;
16248;SDS011;8232;51.678;6.610;2022-07-22T01:09:33;4.47;;;2.40;;
16248;SDS011;8232;51.678;6.610;2022-07-22T01:12:01;8.70;;;2.50;;
16248;SDS011;8232;51.678;6.610;2022-07-22T01:14:28;5.93;;;2.85;;
16248;SDS011;8232;51.678;6.610;2022-07-22T01:16:55;3.63;;;2.33;;
16248;SDS011;8232;51.678;6.610;2022-07-22T01:19:23;8.10;;;2.85;;
16248;SDS011;8232;51.678;6.610;2022-07-22T01:21:51;3.40;;;2.00;;
16248;SDS011;8232;51.678;6.610;2022-07-22T01:24:18;6.63;;;2.53;;
16248;SDS011;8232;51.678;6.610;2022-07-22T01:26:45;6.47;;;2.83;;
16248;SDS011;8232;51.678;6.610;2022-07-22T01:29:12;5.32;;;2.40;;
16248;SDS011;8232;51.678;6.610;2022-07-22T01:31:38;5.05;;;2.33;;
16248;SDS011;8232;51.678;6.610;2022-07-22T01:34:05;5.82;;;2.50;;
16248;SDS011;8232;51.678;6.610;2022-07-22T01:36:32;5.15;;;2.35;;
16248;SDS011;8232;51.678;6.610;2022-07-22T01:39:00;7.18;;;2.42;;
16248;SDS011;8232;51.678;6.610;2022-07-22T01:41:28;6.78;;;2.38;;
16248;SDS011;8232;51.678;6.610;2022-07-22T01:43:54;8.63;;;2.70;;
16248;SDS011;8232;51.678;6.610;2022-07-22T01:46:22;5.85;;;2.70;;
16248;SDS011;8232;51.678;6.610;2022-07-22T01:48:49;5.22;;;2.50;;
16248;SDS011;8232;51.678;6.610;2022-07-22T01:51:16;5.15;;;2.55;;
16248;SDS011;8232;51.678;6.610;2022-07-22T01:53:43;6.93;;;2.63;;
16248;SDS011;8232;51.678;6.610;2022-07-22T01:56:11;2.80;;;2.20;;
16248;SDS011;8232;51.678;6.610;2022-07-22T01:58:39;3.78;;;2.55;;
16248;SDS011;8232;51.678;6.610;2022-07-22T02:01:06;6.45;;;2.90;;
16248;SDS011;8232;51.678;6.610;2022-07-22T02:03:33;8.27;;;2.88;;
16248;SDS011;8232;51.678;6.610;2022-07-22T02:06:00;5.90;;;2.50;;
16248;SDS011;8232;51.678;6.610;2022-07-22T02:08:27;3.75;;;2.58;;
16248;SDS011;8232;51.678;6.610;2022-07-22T02:10:54;8.13;;;2.80;;
16248;SDS011;8232;51.678;6.610;2022-07-22T02:13:22;6.38;;;3.03;;
16248;SDS011;8232;51.678;6.610;2022-07-22T02:19:11;6.97;;;2.92;;
16248;SDS011;8232;51.678;6.610;2022-07-22T02:21:38;5.88;;;2.83;;
16248;SDS011;8232;51.678;6.610;2022-07-22T02:24:05;7.32;;;3.17;;
16248;SDS011;8232;51.678;6.610;2022-07-22T02:26:32;7.63;;;3.17;;
16248;SDS011;8232;51.678;6.610;2022-07-22T02:29:00;8.68;;;3.25;;
16248;SDS011;8232;51.678;6.610;2022-07-22T02:31:28;10.68;;;3.08;;
16248;SDS011;8232;51.678;6.610;2022-07-22T02:33:55;5.05;;;2.90;;
16248;SDS011;8232;51.678;6.610;2022-07-22T02:36:22;6.60;;;2.70;;
16248;SDS011;8232;51.678;6.610;2022-07-22T02:38:49;9.15;;;3.03;;
16248;SDS011;8232;51.678;6.610;2022-07-22T02:41:16;9.88;;;3.55;;
16248;SDS011;8232;51.678;6.610;2022-07-22T02:43:42;6.35;;;2.83;;
16248;SDS011;8232;51.678;6.610;2022-07-22T02:46:11;7.68;;;2.95;;
16248;SDS011;8232;51.678;6.610;2022-07-22T02:48:37;10.00;;;3.40;;
16248;SDS011;8232;51.678;6.610;2022-07-22T02:51:04;9.50;;;3.33;;
16248;SDS011;8232;51.678;6.610;2022-07-22T02:53:31;10.50;;;3.50;;
16248;SDS011;8232;51.678;6.610;2022-07-22T02:55:58;10.50;;;3.13;;
16248;SDS011;8232;51.678;6.610;2022-07-22T02:58:25;8.57;;;2.95;;
16248;SDS011;8232;51.678;6.610;2022-07-22T03:00:52;8.57;;;3.20;;
16248;SDS011;8232;51.678;6.610;2022-07-22T03:03:20;11.13;;;3.05;;
16248;SDS011;8232;51.678;6.610;2022-07-22T03:05:48;9.68;;;3.13;;
16248;SDS011;8232;51.678;6.610;2022-07-22T03:08:15;10.25;;;3.22;;
16248;SDS011;8232;51.678;6.610;2022-07-22T03:10:42;7.47;;;2.78;;
16248;SDS011;8232;51.678;6.610;2022-07-22T03:13:09;9.60;;;2.85;;
16248;SDS011;8232;51.678;6.610;2022-07-22T03:15:36;8.70;;;3.00;;
16248;SDS011;8232;51.678;6.610;2022-07-22T03:18:03;5.35;;;2.83;;
16248;SDS011;8232;51.678;6.610;2022-07-22T03:20:31;9.98;;;2.80;;
16248;SDS011;8232;51.678;6.610;2022-07-22T03:22:58;8.07;;;2.78;;
16248;SDS011;8232;51.678;6.610;2022-07-22T03:25:25;10.07;;;2.90;;
16248;SDS011;8232;51.678;6.610;2022-07-22T03:27:52;7.13;;;3.20;;
16248;SDS011;8232;51.678;6.610;2022-07-22T03:30:19;8.50;;;2.80;;
16248;SDS011;8232;51.678;6.610;2022-07-22T03:32:46;8.68;;;3.17;;
16248;SDS011;8232;51.678;6.610;2022-07-22T03:35:13;6.53;;;3.08;;
16248;SDS011;8232;51.678;6.610;2022-07-22T03:37:41;12.88;;;3.08;;
16248;SDS011;8232;51.678;6.610;2022-07-22T03:40:09;8.23;;;2.97;;
16248;SDS011;8232;51.678;6.610;2022-07-22T03:42:36;10.95;;;3.17;;
16248;SDS011;8232;51.678;6.610;2022-07-22T03:45:03;11.15;;;3.25;;
16248;SDS011;8232;51.678;6.610;2022-07-22T03:47:31;14.13;;;3.15;;
16248;SDS011;8232;51.678;6.610;2022-07-22T03:49:58;7.35;;;2.95;;
16248;SDS011;8232;51.678;6.610;2022-07-22T03:52:26;9.60;;;3.20;;
16248;SDS011;8232;51.678;6.610;2022-07-22T03:54:55;9.00;;;3.10;;
16248;SDS011;8232;51.678;6.610;2022-07-22T03:57:21;13.60;;;2.95;;
16248;SDS011;8232;51.678;6.610;2022-07-22T03:59:48;5.13;;;3.00;;
16248;SDS011;8232;51.678;6.610;2022-07-22T04:02:15;8.85;;;3.22;;
16248;SDS011;8232;51.678;6.610;2022-07-22T04:04:43;10.13;;;2.72;;
16248;SDS011;8232;51.678;6.610;2022-07-22T04:07:10;10.50;;;2.75;;
16248;SDS011;8232;51.678;6.610;2022-07-22T04:09:37;13.07;;;3.00;;
16248;SDS011;8232;51.678;6.610;2022-07-22T04:12:05;8.77;;;2.83;;
16248;SDS011;8232;51.678;6.610;2022-07-22T04:14:33;4.25;;;2.60;;
16248;SDS011;8232;51.678;6.610;2022-07-22T04:17:00;8.13;;;2.78;;
16248;SDS011;8232;51.678;6.610;2022-07-22T04:19:26;9.93;;;3.28;;
16248;SDS011;8232;51.678;6.610;2022-07-22T04:21:53;8.05;;;2.80;;
16248;SDS011;8232;51.678;6.610;2022-07-22T04:24:20;12.32;;;3.13;;
16248;SDS011;8232;51.678;6.610;2022-07-22T04:26:47;11.35;;;3.15;;
16248;SDS011;8232;51.678;6.610;2022-07-22T04:29:15;7.70;;;2.75;;
16248;SDS011;8232;51.678;6.610;2022-07-22T04:31:42;15.07;;;3.08;;
16248;SDS011;8232;51.678;6.610;2022-07-22T04:34:09;14.35;;;3.22;;
16248;SDS011;8232;51.678;6.610;2022-07-22T04:36:36;14.43;;;3.00;;
16248;SDS011;8232;51.678;6.610;2022-07-22T04:39:03;13.73;;;3.00;;
16248;SDS011;8232;51.678;6.610;2022-07-22T04:41:30;18.67;;;3.83;;
16248;SDS011;8232;51.678;6.610;2022-07-22T04:43:57;15.38;;;2.83;;
16248;SDS011;8232;51.678;6.610;2022-07-22T04:46:25;8.05;;;2.88;;
16248;SDS011;8232;51.678;6.610;2022-07-22T04:48:52;5.95;;;2.88;;
16248;SDS011;8232;51.678;6.610;2022-07-22T04:51:19;10.45;;;2.72;;
16248;SDS011;8232;51.678;6.610;2022-07-22T04:53:46;7.63;;;2.80;;
16248;SDS011;8232;51.678;6.610;2022-07-22T04:56:13;7.60;;;2.67;;
16248;SDS011;8232;51.678;6.610;2022-07-22T04:58:40;6.78;;;3.13;;
16248;SDS011;8232;51.678;6.610;2022-07-22T05:01:07;7.47;;;3.05;;
16248;SDS011;8232;51.678;6.610;2022-07-22T05:03:35;9.23;;;2.80;;
16248;SDS011;8232;51.678;6.610;2022-07-22T05:06:04;7.18;;;2.35;;
16248;SDS011;8232;51.678;6.610;2022-07-22T05:08:31;9.68;;;2.90;;
16248;SDS011;8232;51.678;6.610;2022-07-22T05:10:57;12.55;;;2.88;;
16248;SDS011;8232;51.678;6.610;2022-07-22T05:13:24;15.77;;;3.00;;
16248;SDS011;8232;51.678;6.610;2022-07-22T05:15:51;11.70;;;2.70;;
16248;SDS011;8232;51.678;6.610;2022-07-22T05:18:18;8.07;;;2.60;;
16248;SDS011;8232;51.678;6.610;2022-07-22T05:20:47;8.13;;;2.63;;
16248;SDS011;8232;51.678;6.610;2022-07-22T05:23:13;10.13;;;2.65;;
16248;SDS011;8232;51.678;6.610;2022-07-22T05:25:40;10.63;;;2.80;;
16248;SDS011;8232;51.678;6.610;2022-07-22T05:28:07;7.97;;;2.78;;
16248;SDS011;8232;51.678;6.610;2022-07-22T05:30:34;11.88;;;2.97;;
16248;SDS011;8232;51.678;6.610;2022-07-22T05:33:01;8.75;;;2.92;;
16248;SDS011;8232;51.678;6.610;2022-07-22T05:35:28;10.13;;;2.95;;
16248;SDS011;8232;51.678;6.610;2022-07-22T05:37:56;6.07;;;2.58;;
16248;SDS011;8232;51.678;6.610;2022-07-22T05:40:23;7.78;;;2.60;;
16248;SDS011;8232;51.678;6.610;2022-07-22T05:42:49;13.35;;;2.67;;
16248;SDS011;8232;51.678;6.610;2022-07-22T05:45:16;7.53;;;3.10;;
16248;SDS011;8232;51.678;6.610;2022-07-22T05:47:43;7.57;;;2.88;;
16248;SDS011;8232;51.678;6.610;2022-07-22T05:50:10;6.65;;;2.72;;
16248;SDS011;8232;51.678;6.610;2022-07-22T05:52:37;11.93;;;2.70;;
16248;SDS011;8232;51.678;6.610;2022-07-22T05:55:06;8.82;;;3.20;;
16248;SDS011;8232;51.678;6.610;2022-07-22T05:57:33;10.82;;;2.60;;
16248;SDS011;8232;51.678;6.610;2022-07-22T06:00:00;8.02;;;2.20;;
16248;SDS011;8232;51.678;6.610;2022-07-22T06:02:27;6.25;;;2.58;;
16248;SDS011;8232;51.678;6.610;2022-07-22T06:04:54;7.28;;;2.40;;
16248;SDS011;8232;51.678;6.610;2022-07-22T06:07:21;8.15;;;2.55;;
16248;SDS011;8232;51.678;6.610;2022-07-22T06:09:49;8.70;;;2.92;;
16248;SDS011;8232;51.678;6.610;2022-07-22T06:12:17;7.85;;;2.60;;
16248;SDS011;8232;51.678;6.610;2022-07-22T06:14:44;6.72;;;2.50;;
16248;SDS011;8232;51.678;6.610;2022-07-22T06:17:12;9.48;;;2.55;;
16248;SDS011;8232;51.678;6.610;2022-07-22T06:19:39;8.15;;;2.20;;
16248;SDS011;8232;51.678;6.610;2022-07-22T06:22:06;8.05;;;2.95;;
16248;SDS011;8232;51.678;6.610;2022-07-22T06:24:33;10.25;;;2.50;;
16248;SDS011;8232;51.678;6.610;2022-07-22T06:26:59;5.90;;;2.38;;
16248;SDS011;8232;51.678;6.610;2022-07-22T06:29:28;15.30;;;2.95;;
16248;SDS011;8232;51.678;6.610;2022-07-22T06:31:54;8.73;;;2.40;;
16248;SDS011;8232;51.678;6.610;2022-07-22T06:34:21;5.15;;;2.03;;
16248;SDS011;8232;51.678;6.610;2022-07-22T06:36:48;3.55;;;1.98;;
16248;SDS011;8232;51.678;6.610;2022-07-22T06:39:15;9.95;;;3.13;;
16248;SDS011;8232;51.678;6.610;2022-07-22T06:41:42;7.95;;;2.38;;
16248;SDS011;8232;51.678;6.610;2022-07-22T06:44:09;6.47;;;2.72;;
16248;SDS011;8232;51.678;6.610;2022-07-22T06:46:37;7.05;;;2.17;;
16248;SDS011;8232;51.678;6.610;2022-07-22T06:49:04;4.95;;;2.28;;
16248;SDS011;8232;51.678;6.610;2022-07-22T06:51:31;8.13;;;2.47;;
16248;SDS011;8232;51.678;6.610;2022-07-22T06:53:58;5.82;;;2.20;;
16248;SDS011;8232;51.678;6.610;2022-07-22T06:56:25;14.23;;;2.85;;
16248;SDS011;8232;51.678;6.610;2022-07-22T06:58:52;6.38;;;2.55;;
16248;SDS011;8232;51.678;6.610;2022-07-22T07:01:19;8.98;;;2.42;;
16248;SDS011;8232;51.678;6.610;2022-07-22T07:03:47;8.55;;;2.13;;
16248;SDS011;8232;51.678;6.610;2022-07-22T07:06:14;5.10;;;2.30;;
16248;SDS011;8232;51.678;6.610;2022-07-22T07:08:41;6.70;;;2.10;;
16248;SDS011;8232;51.678;6.610;2022-07-22T07:11:08;5.40;;;1.98;;
16248;SDS011;8232;51.678;6.610;2022-07-22T07:13:35;6.22;;;1.95;;
16248;SDS011;8232;51.678;6.610;2022-07-22T07:16:02;7.20;;;2.05;;
16248;SDS011;8232;51.678;6.610;2022-07-22T07:18:29;11.60;;;2.10;;
16248;SDS011;8232;51.678;6.610;2022-07-22T07:20:57;5.28;;;1.80;;
16248;SDS011;8232;51.678;6.610;2022-07-22T07:23:24;7.18;;;1.83;;
16248;SDS011;8232;51.678;6.610;2022-07-22T07:25:51;6.22;;;1.70;;
16248;SDS011;8232;51.678;6.610;2022-07-22T07:28:18;6.50;;;2.28;;
16248;SDS011;8232;51.678;6.610;2022-07-22T07:30:45;7.50;;;2.22;;
16248;SDS011;8232;51.678;6.610;2022-07-22T07:33:12;4.18;;;1.58;;
16248;SDS011;8232;51.678;6.610;2022-07-22T07:35:39;7.55;;;2.30;;
16248;SDS011;8232;51.678;6.610;2022-07-22T07:38:07;3.90;;;1.60;;
16248;SDS011;8232;51.678;6.610;2022-07-22T07:40:34;5.13;;;2.00;;
16248;SDS011;8232;51.678;6.610;2022-07-22T07:43:01;6.95;;;1.83;;
16248;SDS011;8232;51.678;6.610;2022-07-22T07:45:28;9.20;;;2.17;;
16248;SDS011;8232;51.678;6.610;2022-07-22T07:47:56;5.78;;;1.88;;
16248;SDS011;8232;51.678;6.610;2022-07-22T07:50:23;8.07;;;2.00;;
16248;SDS011;8232;51.678;6.610;2022-07-22T07:52:50;6.13;;;1.90;;
16248;SDS011;8232;51.678;6.610;2022-07-22T07:55:18;4.10;;;1.80;;
16248;SDS011;8232;51.678;6.610;2022-07-22T07:57:46;9.13;;;1.95;;
16248;SDS011;8232;51.678;6.610;2022-07-22T08:00:14;5.15;;;1.60;;
16248;SDS011;8232;51.678;6.610;2022-07-22T08:02:42;8.35;;;1.80;;
16248;SDS011;8232;51.678;6.610;2022-07-22T08:05:09;8.40;;;1.65;;
16248;SDS011;8232;51.678;6.610;2022-07-22T08:07:37;7.30;;;1.88;;
16248;SDS011;8232;51.678;6.610;2022-07-22T08:10:05;6.50;;;2.10;;
16248;SDS011;8232;51.678;6.610;2022-07-22T08:12:34;6.47;;;2.00;;
16248;SDS011;8232;51.678;6.610;2022-07-22T08:15:01;4.93;;;1.90;;
16248;SDS011;8232;51.678;6.610;2022-07-22T08:17:28;6.18;;;1.88;;
16248;SDS011;8232;51.678;6.610;2022-07-22T08:19:55;8.10;;;1.92;;
16248;SDS011;8232;51.678;6.610;2022-07-22T08:22:22;5.63;;;1.50;;
16248;SDS011;8232;51.678;6.610;2022-07-22T08:24:49;2.92;;;1.70;;
16248;SDS011;8232;51.678;6.610;2022-07-22T08:27:16;6.90;;;1.77;;
16248;SDS011;8232;51.678;6.610;2022-07-22T08:29:44;6.32;;;1.70;;
16248;SDS011;8232;51.678;6.610;2022-07-22T08:32:11;5.35;;;2.08;;
16248;SDS011;8232;51.678;6.610;2022-07-22T08:34:38;6.20;;;1.95;;
16248;SDS011;8232;51.678;6.610;2022-07-22T08:37:05;5.57;;;1.80;;
16248;SDS011;8232;51.678;6.610;2022-07-22T08:39:32;4.30;;;1.55;;
16248;SDS011;8232;51.678;6.610;2022-07-22T08:42:00;3.72;;;1.75;;
16248;SDS011;8232;51.678;6.610;2022-07-22T08:44:28;6.53;;;2.20;;
16248;SDS011;8232;51.678;6.610;2022-07-22T08:46:58;5.57;;;1.80;;
16248;SDS011;8232;51.678;6.610;2022-07-22T08:49:25;3.97;;;1.95;;
16248;SDS011;8232;51.678;6.610;2022-07-22T08:51:53;4.97;;;2.10;;
16248;SDS011;8232;51.678;6.610;2022-07-22T08:54:20;5.70;;;2.03;;
16248;SDS011;8232;51.678;6.610;2022-07-22T08:56:47;6.72;;;2.08;;
16248;SDS011;8232;51.678;6.610;2022-07-22T08:59:14;4.57;;;3.08;;
16248;SDS011;8232;51.678;6.610;2022-07-22T09:04:32;7.63;;;2.58;;
16248;SDS011;8232;51.678;6.610;2022-07-22T09:07:22;5.60;;;2.25;;
16248;SDS011;8232;51.678;6.610;2022-07-22T09:09:50;4.35;;;1.70;;
16248;SDS011;8232;51.678;6.610;2022-07-22T09:12:17;6.60;;;1.65;;
16248;SDS011;8232;51.678;6.610;2022-07-22T09:14:45;6.25;;;2.10;;
16248;SDS011;8232;51.678;6.610;2022-07-22T09:17:23;3.92;;;1.92;;
16248;SDS011;8232;51.678;6.610;2022-07-22T09:19:51;6.30;;;2.00;;
16248;SDS011;8232;51.678;6.610;2022-07-22T09:25:16;7.93;;;2.03;;
16248;SDS011;8232;51.678;6.610;2022-07-22T09:27:44;7.43;;;2.30;;
16248;SDS011;8232;51.678;6.610;2022-07-22T09:30:12;7.57;;;2.10;;
16248;SDS011;8232;51.678;6.610;2022-07-22T09:32:42;8.23;;;2.45;;
16248;SDS011;8232;51.678;6.610;2022-07-22T09:35:10;5.60;;;2.08;;
16248;SDS011;8232;51.678;6.610;2022-07-22T09:37:46;3.70;;;2.08;;
16248;SDS011;8232;51.678;6.610;2022-07-22T09:40:19;4.75;;;2.40;;
16248;SDS011;8232;51.678;6.610;2022-07-22T09:42:48;5.85;;;2.20;;
16248;SDS011;8232;51.678;6.610;2022-07-22T09:45:16;9.25;;;2.63;;
16248;SDS011;8232;51.678;6.610;2022-07-22T09:47:46;7.30;;;2.60;;
16248;SDS011;8232;51.678;6.610;2022-07-22T09:50:14;6.63;;;2.30;;
16248;SDS011;8232;51.678;6.610;2022-07-22T09:52:48;3.50;;;2.08;;
16248;SDS011;8232;51.678;6.610;2022-07-22T09:55:17;4.57;;;2.38;;
16248;SDS011;8232;51.678;6.610;2022-07-22T09:57:45;8.02;;;2.53;;
16248;SDS011;8232;51.678;6.610;2022-07-22T10:00:13;5.75;;;2.58;;
16248;SDS011;8232;51.678;6.610;2022-07-22T10:02:44;9.05;;;2.92;;
16248;SDS011;8232;51.678;6.610;2022-07-22T10:05:14;3.90;;;2.10;;
16248;SDS011;8232;51.678;6.610;2022-07-22T10:07:43;4.28;;;2.67;;
16248;SDS011;8232;51.678;6.610;2022-07-22T10:10:13;4.07;;;2.03;;
16248;SDS011;8232;51.678;6.610;2022-07-22T10:12:41;6.40;;;2.42;;
16248;SDS011;8232;51.678;6.610;2022-07-22T10:15:09;4.47;;;2.45;;
16248;SDS011;8232;51.678;6.610;2022-07-22T10:17:37;4.93;;;2.45;;
16248;SDS011;8232;51.678;6.610;2022-07-22T10:20:09;7.82;;;2.20;;
16248;SDS011;8232;51.678;6.610;2022-07-22T10:22:50;4.22;;;2.30;;
16248;SDS011;8232;51.678;6.610;2022-07-22T10:25:20;4.63;;;2.10;;
16248;SDS011;8232;51.678;6.610;2022-07-22T10:27:50;5.57;;;2.75;;
16248;SDS011;8232;51.678;6.610;2022-07-22T10:30:19;5.18;;;2.30;;
16248;SDS011;8232;51.678;6.610;2022-07-22T10:33:00;8.38;;;1.85;;
16248;SDS011;8232;51.678;6.610;2022-07-22T10:35:30;4.63;;;2.30;;
16248;SDS011;8232;51.678;6.610;2022-07-22T10:37:59;6.32;;;2.28;;
16248;SDS011;8232;51.678;6.610;2022-07-22T10:40:29;6.32;;;2.45;;
16248;SDS011;8232;51.678;6.610;2022-07-22T10:43:09;4.40;;;2.45;;
16248;SDS011;8232;51.678;6.610;2022-07-22T10:45:38;3.92;;;1.90;;
16248;SDS011;8232;51.678;6.610;2022-07-22T10:48:09;4.50;;;2.20;;
16248;SDS011;8232;51.678;6.610;2022-07-22T10:50:51;5.47;;;2.10;;
16248;SDS011;8232;51.678;6.610;2022-07-22T10:53:21;5.25;;;2.38;;
16248;SDS011;8232;51.678;6.610;2022-07-22T10:56:00;5.15;;;2.22;;
16248;SDS011;8232;51.678;6.610;2022-07-22T10:58:44;3.33;;;2.00;;
16248;SDS011;8232;51.678;6.610;2022-07-22T11:01:14;7.03;;;2.58;;
16248;SDS011;8232;51.678;6.610;2022-07-22T11:03:42;11.25;;;2.33;;
16248;SDS011;8232;51.678;6.610;2022-07-22T11:06:14;4.07;;;2.42;;
16248;SDS011;8232;51.678;6.610;2022-07-22T11:08:43;7.03;;;2.20;;
16248;SDS011;8232;51.678;6.610;2022-07-22T11:11:12;6.43;;;2.55;;
16248;SDS011;8232;51.678;6.610;2022-07-22T11:13:39;4.97;;;2.50;;
16248;SDS011;8232;51.678;6.610;2022-07-22T11:16:19;5.90;;;2.50;;
16248;SDS011;8232;51.678;6.610;2022-07-22T11:18:48;6.63;;;2.05;;
16248;SDS011;8232;51.678;6.610;2022-07-22T11:21:17;3.60;;;2.40;;
16248;SDS011;8232;51.678;6.610;2022-07-22T11:23:46;4.43;;;2.70;;
16248;SDS011;8232;51.678;6.610;2022-07-22T11:26:15;6.10;;;2.28;;
16248;SDS011;8232;51.678;6.610;2022-07-22T11:28:44;4.82;;;2.25;;
16248;SDS011;8232;51.678;6.610;2022-07-22T11:31:14;6.40;;;2.25;;
16248;SDS011;8232;51.678;6.610;2022-07-22T11:33:43;8.50;;;2.33;;
16248;SDS011;8232;51.678;6.610;2022-07-22T11:36:11;3.70;;;2.00;;
16248;SDS011;8232;51.678;6.610;2022-07-22T11:41:22;3.92;;;2.00;;
16248;SDS011;8232;51.678;6.610;2022-07-22T11:43:49;4.18;;;2.05;;
16248;SDS011;8232;51.678;6.610;2022-07-22T11:46:17;8.27;;;2.05;;
16248;SDS011;8232;51.678;6.610;2022-07-22T11:48:46;4.07;;;1.90;;
16248;SDS011;8232;51.678;6.610;2022-07-22T11:51:13;6.88;;;2.50;;
16248;SDS011;8232;51.678;6.610;2022-07-22T11:53:41;4.38;;;2.00;;
16248;SDS011;8232;51.678;6.610;2022-07-22T11:56:09;4.53;;;2.03;;
16248;SDS011;8232;51.678;6.610;2022-07-22T11:58:38;4.75;;;1.77;;
16248;SDS011;8232;51.678;6.610;2022-07-22T12:01:06;6.25;;;2.22;;
16248;SDS011;8232;51.678;6.610;2022-07-22T12:03:35;4.15;;;2.17;;
16248;SDS011;8232;51.678;6.610;2022-07-22T12:06:05;4.38;;;2.22;;
16248;SDS011;8232;51.678;6.610;2022-07-22T12:08:34;5.20;;;2.58;;
16248;SDS011;8232;51.678;6.610;2022-07-22T12:11:05;3.00;;;1.90;;
16248;SDS011;8232;51.678;6.610;2022-07-22T12:13:32;3.05;;;2.20;;
16248;SDS011;8232;51.678;6.610;2022-07-22T12:15:59;5.68;;;2.50;;
16248;SDS011;8232;51.678;6.610;2022-07-22T12:18:42;9.23;;;2.60;;
16248;SDS011;8232;51.678;6.610;2022-07-22T12:21:10;5.05;;;2.65;;
16248;SDS011;8232;51.678;6.610;2022-07-22T12:23:37;8.32;;;2.60;;
16248;SDS011;8232;51.678;6.610;2022-07-22T12:26:03;5.90;;;2.55;;
16248;SDS011;8232;51.678;6.610;2022-07-22T12:28:30;6.65;;;2.55;;
16248;SDS011;8232;51.678;6.610;2022-07-22T12:30:57;4.63;;;2.17;;
16248;SDS011;8232;51.678;6.610;2022-07-22T12:33:25;5.35;;;2.20;;
16248;SDS011;8232;51.678;6.610;2022-07-22T12:35:59;4.25;;;2.38;;
16248;SDS011;8232;51.678;6.610;2022-07-22T12:38:28;3.90;;;2.28;;
16248;SDS011;8232;51.678;6.610;2022-07-22T12:40:55;7.22;;;2.08;;
16248;SDS011;8232;51.678;6.610;2022-07-22T12:43:25;3.90;;;2.05;;
16248;SDS011;8232;51.678;6.610;2022-07-22T12:45:52;4.88;;;2.50;;
16248;SDS011;8232;51.678;6.610;2022-07-22T12:48:19;4.38;;;2.58;;
16248;SDS011;8232;51.678;6.610;2022-07-22T12:50:55;3.58;;;2.17;;
16248;SDS011;8232;51.678;6.610;2022-07-22T12:53:24;3.58;;;2.47;;
16248;SDS011;8232;51.678;6.610;2022-07-22T12:55:55;4.10;;;2.28;;
16248;SDS011;8232;51.678;6.610;2022-07-22T12:58:24;5.85;;;2.30;;
16248;SDS011;8232;51.678;6.610;2022-07-22T13:00:54;4.00;;;2.38;;
16248;SDS011;8232;51.678;6.610;2022-07-22T13:03:22;5.32;;;2.65;;
16248;SDS011;8232;51.678;6.610;2022-07-22T13:05:51;4.28;;;2.63;;
16248;SDS011;8232;51.678;6.610;2022-07-22T13:08:19;3.55;;;2.60;;
16248;SDS011;8232;51.678;6.610;2022-07-22T13:10:46;3.13;;;2.22;;
16248;SDS011;8232;51.678;6.610;2022-07-22T13:13:14;5.20;;;2.42;;
16248;SDS011;8232;51.678;6.610;2022-07-22T13:15:41;9.45;;;2.78;;
16248;SDS011;8232;51.678;6.610;2022-07-22T13:18:08;6.68;;;2.47;;
16248;SDS011;8232;51.678;6.610;2022-07-22T13:20:35;4.57;;;2.47;;
16248;SDS011;8232;51.678;6.610;2022-07-22T13:23:02;3.42;;;2.47;;
16248;SDS011;8232;51.678;6.610;2022-07-22T13:25:29;6.68;;;2.78;;
16248;SDS011;8232;51.678;6.610;2022-07-22T13:27:57;6.60;;;2.80;;
16248;SDS011;8232;51.678;6.610;2022-07-22T13:30:26;4.13;;;2.25;;
16248;SDS011;8232;51.678;6.610;2022-07-22T13:32:53;4.30;;;2.70;;
16248;SDS011;8232;51.678;6.610;2022-07-22T13:35:20;6.10;;;2.20;;
16248;SDS011;8232;51.678;6.610;2022-07-22T13:37:47;4.45;;;2.50;;
16248;SDS011;8232;51.678;6.610;2022-07-22T13:40:14;4.68;;;2.75;;
16248;SDS011;8232;51.678;6.610;2022-07-22T13:42:41;8.88;;;2.83;;
16248;SDS011;8232;51.678;6.610;2022-07-22T13:45:08;6.03;;;2.90;;
16248;SDS011;8232;51.678;6.610;2022-07-22T13:47:38;5.40;;;2.78;;
16248;SDS011;8232;51.678;6.610;2022-07-22T13:50:06;8.32;;;2.55;;
16248;SDS011;8232;51.678;6.610;2022-07-22T13:52:34;5.55;;;2.47;;
16248;SDS011;8232;51.678;6.610;2022-07-22T13:55:01;4.43;;;2.63;;
16248;SDS011;8232;51.678;6.610;2022-07-22T13:57:28;4.55;;;2.90;;
16248;SDS011;8232;51.678;6.610;2022-07-22T13:59:55;6.07;;;2.90;;
16248;SDS011;8232;51.678;6.610;2022-07-22T14:02:22;5.30;;;2.70;;
16248;SDS011;8232;51.678;6.610;2022-07-22T14:04:51;6.15;;;2.35;;
16248;SDS011;8232;51.678;6.610;2022-07-22T14:07:17;3.72;;;2.10;;
16248;SDS011;8232;51.678;6.610;2022-07-22T14:09:44;4.35;;;2.42;;
16248;SDS011;8232;51.678;6.610;2022-07-22T14:12:11;5.32;;;2.25;;
16248;SDS011;8232;51.678;6.610;2022-07-22T14:14:38;6.80;;;2.50;;
16248;SDS011;8232;51.678;6.610;2022-07-22T14:17:05;3.42;;;2.30;;
16248;SDS011;8232;51.678;6.610;2022-07-22T14:19:32;4.20;;;2.40;;
16248;SDS011;8232;51.678;6.610;2022-07-22T14:22:00;4.30;;;2.72;;
16248;SDS011;8232;51.678;6.610;2022-07-22T14:24:27;5.00;;;2.55;;
16248;SDS011;8232;51.678;6.610;2022-07-22T14:26:54;3.55;;;2.05;;
16248;SDS011;8232;51.678;6.610;2022-07-22T14:29:21;4.05;;;2.20;;
16248;SDS011;8232;51.678;6.610;2022-07-22T14:31:48;4.90;;;2.20;;
16248;SDS011;8232;51.678;6.610;2022-07-22T14:34:15;5.18;;;2.30;;
16248;SDS011;8232;51.678;6.610;2022-07-22T14:36:42;11.95;;;2.90;;
16248;SDS011;8232;51.678;6.610;2022-07-22T14:39:10;5.40;;;2.33;;
16248;SDS011;8232;51.678;6.610;2022-07-22T14:41:37;4.15;;;2.60;;
16248;SDS011;8232;51.678;6.610;2022-07-22T14:44:04;5.05;;;2.50;;
16248;SDS011;8232;51.678;6.610;2022-07-22T14:46:31;4.32;;;2.75;;
16248;SDS011;8232;51.678;6.610;2022-07-22T14:48:58;6.82;;;2.55;;
16248;SDS011;8232;51.678;6.610;2022-07-22T14:51:25;4.70;;;2.67;;
16248;SDS011;8232;51.678;6.610;2022-07-22T14:53:51;4.82;;;2.30;;
16248;SDS011;8232;51.678;6.610;2022-07-22T14:56:20;4.90;;;2.55;;
16248;SDS011;8232;51.678;6.610;2022-07-22T14:58:46;4.03;;;2.38;;
16248;SDS011;8232;51.678;6.610;2022-07-22T15:01:13;3.35;;;2.10;;
16248;SDS011;8232;51.678;6.610;2022-07-22T15:03:41;3.33;;;2.15;;
16248;SDS011;8232;51.678;6.610;2022-07-22T15:06:07;4.93;;;1.83;;
16248;SDS011;8232;51.678;6.610;2022-07-22T15:08:34;8.68;;;2.40;;
16248;SDS011;8232;51.678;6.610;2022-07-22T15:11:02;2.60;;;1.90;;
16248;SDS011;8232;51.678;6.610;2022-07-22T15:13:31;3.10;;;2.10;;
16248;SDS011;8232;51.678;6.610;2022-07-22T15:15:59;8.38;;;2.50;;